sensor_id;sensor_type;location;lat;lon;timestamp;P1;durP1;ratioP1;P2;durP2;ratioP2
47535;SDS011;33278;50.826;9.030;2022-07-05T00:01:45;1.80;;;1.33;;
47535;SDS011;33278;50.826;9.030;2022-07-05T00:04:15;1.70;;;1.45;;
47535;SDS011;33278;50.826;9.030;2022-07-05T00:06:46;2.75;;;1.50;;
47535;SDS011;33278;50.826;9.030;2022-07-05T00:09:35;1.60;;;1.50;;
47535;SDS011;33278;50.826;9.030;2022-07-05T00:12:05;1.42;;;1.33;;
47535;SDS011;33278;50.826;9.030;2022-07-05T00:14:36;1.70;;;1.60;;
47535;SDS011;33278;50.826;9.030;2022-07-05T00:17:06;1.40;;;1.30;;
47535;SDS011;33278;50.826;9.030;2022-07-05T00:19:37;3.33;;;1.20;;
47535;SDS011;33278;50.826;9.030;2022-07-05T00:22:08;1.50;;;1.10;;
47535;SDS011;33278;50.826;9.030;2022-07-05T00:24:39;1.95;;;1.25;;
47535;SDS011;33278;50.826;9.030;2022-07-05T00:27:09;2.30;;;1.25;;
47535;SDS011;33278;50.826;9.030;2022-07-05T00:29:39;1.40;;;1.30;;
47535;SDS011;33278;50.826;9.030;2022-07-05T00:32:09;1.27;;;1.17;;
47535;SDS011;33278;50.826;9.030;2022-07-05T00:34:40;2.97;;;1.48;;
47535;SDS011;33278;50.826;9.030;2022-07-05T00:37:10;4.03;;;1.83;;
47535;SDS011;33278;50.826;9.030;2022-07-05T00:39:41;1.92;;;1.70;;
47535;SDS011;33278;50.826;9.030;2022-07-05T00:42:11;2.30;;;2.10;;
47535;SDS011;33278;50.826;9.030;2022-07-05T00:44:41;2.83;;;2.08;;
47535;SDS011;33278;50.826;9.030;2022-07-05T00:47:12;7.80;;;2.20;;
47535;SDS011;33278;50.826;9.030;2022-07-05T00:49:42;2.33;;;1.85;;
47535;SDS011;33278;50.826;9.030;2022-07-05T00:52:13;4.35;;;1.90;;
47535;SDS011;33278;50.826;9.030;2022-07-05T00:54:45;2.08;;;1.90;;
47535;SDS011;33278;50.826;9.030;2022-07-05T00:57:16;1.85;;;1.67;;
47535;SDS011;33278;50.826;9.030;2022-07-05T00:59:52;4.82;;;1.58;;
47535;SDS011;33278;50.826;9.030;2022-07-05T01:02:22;2.92;;;2.00;;
47535;SDS011;33278;50.826;9.030;2022-07-05T01:04:53;3.83;;;2.05;;
47535;SDS011;33278;50.826;9.030;2022-07-05T01:07:23;4.07;;;1.98;;
47535;SDS011;33278;50.826;9.030;2022-07-05T01:09:55;2.38;;;1.70;;
47535;SDS011;33278;50.826;9.030;2022-07-05T01:12:26;2.40;;;2.13;;
47535;SDS011;33278;50.826;9.030;2022-07-05T01:14:56;3.95;;;1.95;;
47535;SDS011;33278;50.826;9.030;2022-07-05T01:17:27;5.47;;;2.30;;
47535;SDS011;33278;50.826;9.030;2022-07-05T01:19:58;2.97;;;1.55;;
47535;SDS011;33278;50.826;9.030;2022-07-05T01:22:31;2.78;;;1.80;;
47535;SDS011;33278;50.826;9.030;2022-07-05T01:25:08;2.15;;;1.92;;
47535;SDS011;33278;50.826;9.030;2022-07-05T01:27:39;2.78;;;1.75;;
47535;SDS011;33278;50.826;9.030;2022-07-05T01:30:11;4.25;;;1.63;;
47535;SDS011;33278;50.826;9.030;2022-07-05T01:32:42;3.15;;;1.52;;
47535;SDS011;33278;50.826;9.030;2022-07-05T01:35:12;2.53;;;1.80;;
47535;SDS011;33278;50.826;9.030;2022-07-05T01:37:43;2.30;;;1.70;;
47535;SDS011;33278;50.826;9.030;2022-07-05T01:40:14;1.98;;;1.52;;
47535;SDS011;33278;50.826;9.030;2022-07-05T01:42:44;1.75;;;1.65;;
47535;SDS011;33278;50.826;9.030;2022-07-05T01:45:15;2.22;;;2.03;;
47535;SDS011;33278;50.826;9.030;2022-07-05T01:48:06;2.85;;;1.85;;
47535;SDS011;33278;50.826;9.030;2022-07-05T01:50:39;1.95;;;1.65;;
47535;SDS011;33278;50.826;9.030;2022-07-05T01:53:19;4.07;;;1.95;;
47535;SDS011;33278;50.826;9.030;2022-07-05T01:55:51;3.60;;;1.90;;
47535;SDS011;33278;50.826;9.030;2022-07-05T01:58:22;1.33;;;1.23;;
47535;SDS011;33278;50.826;9.030;2022-07-05T02:00:54;1.83;;;1.50;;
47535;SDS011;33278;50.826;9.030;2022-07-05T02:03:26;4.10;;;1.85;;
47535;SDS011;33278;50.826;9.030;2022-07-05T02:05:57;4.38;;;1.73;;
47535;SDS011;33278;50.826;9.030;2022-07-05T02:08:30;1.70;;;1.60;;
47535;SDS011;33278;50.826;9.030;2022-07-05T02:11:00;2.65;;;1.45;;
47535;SDS011;33278;50.826;9.030;2022-07-05T02:13:33;2.00;;;1.63;;
47535;SDS011;33278;50.826;9.030;2022-07-05T02:16:03;6.90;;;1.85;;
47535;SDS011;33278;50.826;9.030;2022-07-05T02:18:34;1.70;;;1.60;;
47535;SDS011;33278;50.826;9.030;2022-07-05T02:21:04;4.05;;;1.50;;
47535;SDS011;33278;50.826;9.030;2022-07-05T02:23:36;3.53;;;1.73;;
47535;SDS011;33278;50.826;9.030;2022-07-05T02:26:06;2.83;;;1.73;;
47535;SDS011;33278;50.826;9.030;2022-07-05T02:28:36;5.20;;;1.85;;
47535;SDS011;33278;50.826;9.030;2022-07-05T02:31:07;5.75;;;1.90;;
47535;SDS011;33278;50.826;9.030;2022-07-05T02:33:37;3.00;;;1.77;;
47535;SDS011;33278;50.826;9.030;2022-07-05T02:36:08;3.15;;;1.35;;
47535;SDS011;33278;50.826;9.030;2022-07-05T02:38:40;2.50;;;1.85;;
47535;SDS011;33278;50.826;9.030;2022-07-05T02:41:10;4.75;;;1.85;;
47535;SDS011;33278;50.826;9.030;2022-07-05T02:43:41;7.45;;;2.13;;
47535;SDS011;33278;50.826;9.030;2022-07-05T02:46:11;7.85;;;2.35;;
47535;SDS011;33278;50.826;9.030;2022-07-05T02:48:42;6.18;;;1.75;;
47535;SDS011;33278;50.826;9.030;2022-07-05T02:51:12;2.40;;;1.60;;
47535;SDS011;33278;50.826;9.030;2022-07-05T02:53:46;4.32;;;1.90;;
47535;SDS011;33278;50.826;9.030;2022-07-05T02:56:16;3.30;;;1.83;;
47535;SDS011;33278;50.826;9.030;2022-07-05T02:58:47;6.63;;;2.05;;
47535;SDS011;33278;50.826;9.030;2022-07-05T03:01:17;3.38;;;1.80;;
47535;SDS011;33278;50.826;9.030;2022-07-05T03:03:47;1.95;;;1.70;;
47535;SDS011;33278;50.826;9.030;2022-07-05T03:06:17;3.45;;;1.90;;
47535;SDS011;33278;50.826;9.030;2022-07-05T03:08:48;3.55;;;1.77;;
47535;SDS011;33278;50.826;9.030;2022-07-05T03:11:18;1.52;;;1.42;;
47535;SDS011;33278;50.826;9.030;2022-07-05T03:13:50;2.23;;;1.53;;
47535;SDS011;33278;50.826;9.030;2022-07-05T03:16:20;2.13;;;1.75;;
47535;SDS011;33278;50.826;9.030;2022-07-05T03:18:53;3.05;;;1.73;;
47535;SDS011;33278;50.826;9.030;2022-07-05T03:21:23;1.95;;;1.60;;
47535;SDS011;33278;50.826;9.030;2022-07-05T03:23:53;3.33;;;2.17;;
47535;SDS011;33278;50.826;9.030;2022-07-05T03:26:24;3.05;;;1.95;;
47535;SDS011;33278;50.826;9.030;2022-07-05T03:28:54;2.55;;;1.77;;
47535;SDS011;33278;50.826;9.030;2022-07-05T03:31:24;1.60;;;1.33;;
47535;SDS011;33278;50.826;9.030;2022-07-05T03:33:55;3.05;;;1.65;;
47535;SDS011;33278;50.826;9.030;2022-07-05T03:36:26;1.85;;;1.60;;
47535;SDS011;33278;50.826;9.030;2022-07-05T03:38:56;2.28;;;1.50;;
47535;SDS011;33278;50.826;9.030;2022-07-05T03:41:27;3.40;;;1.75;;
47535;SDS011;33278;50.826;9.030;2022-07-05T03:43:57;2.10;;;1.63;;
47535;SDS011;33278;50.826;9.030;2022-07-05T03:46:28;2.45;;;1.60;;
47535;SDS011;33278;50.826;9.030;2022-07-05T03:48:58;4.45;;;1.90;;
47535;SDS011;33278;50.826;9.030;2022-07-05T03:51:28;3.60;;;1.50;;
47535;SDS011;33278;50.826;9.030;2022-07-05T03:53:59;2.08;;;1.88;;
47535;SDS011;33278;50.826;9.030;2022-07-05T03:56:29;1.73;;;1.33;;
47535;SDS011;33278;50.826;9.030;2022-07-05T03:59:00;1.77;;;1.63;;
47535;SDS011;33278;50.826;9.030;2022-07-05T04:01:30;1.52;;;1.42;;
47535;SDS011;33278;50.826;9.030;2022-07-05T04:04:01;1.42;;;1.33;;
47535;SDS011;33278;50.826;9.030;2022-07-05T04:06:31;1.77;;;1.63;;
47535;SDS011;33278;50.826;9.030;2022-07-05T04:09:01;2.78;;;1.63;;
47535;SDS011;33278;50.826;9.030;2022-07-05T04:11:32;2.67;;;1.30;;
47535;SDS011;33278;50.826;9.030;2022-07-05T04:14:02;3.35;;;1.65;;
47535;SDS011;33278;50.826;9.030;2022-07-05T04:16:32;2.53;;;1.70;;
47535;SDS011;33278;50.826;9.030;2022-07-05T04:19:03;2.85;;;1.67;;
47535;SDS011;33278;50.826;9.030;2022-07-05T04:21:33;2.22;;;1.85;;
47535;SDS011;33278;50.826;9.030;2022-07-05T04:24:04;2.55;;;1.67;;
47535;SDS011;33278;50.826;9.030;2022-07-05T04:26:34;2.20;;;2.00;;
47535;SDS011;33278;50.826;9.030;2022-07-05T04:29:05;3.47;;;1.85;;
47535;SDS011;33278;50.826;9.030;2022-07-05T04:31:35;4.93;;;1.90;;
47535;SDS011;33278;50.826;9.030;2022-07-05T04:34:05;6.95;;;1.65;;
47535;SDS011;33278;50.826;9.030;2022-07-05T04:36:36;2.17;;;1.85;;
47535;SDS011;33278;50.826;9.030;2022-07-05T04:39:10;1.60;;;1.50;;
47535;SDS011;33278;50.826;9.030;2022-07-05T04:41:40;2.05;;;1.65;;
47535;SDS011;33278;50.826;9.030;2022-07-05T04:44:11;2.63;;;2.00;;
47535;SDS011;33278;50.826;9.030;2022-07-05T04:46:41;3.47;;;1.73;;
47535;SDS011;33278;50.826;9.030;2022-07-05T04:49:11;3.17;;;1.80;;
47535;SDS011;33278;50.826;9.030;2022-07-05T04:51:42;2.17;;;1.80;;
47535;SDS011;33278;50.826;9.030;2022-07-05T04:54:12;1.73;;;1.63;;
47535;SDS011;33278;50.826;9.030;2022-07-05T04:56:42;3.83;;;1.92;;
47535;SDS011;33278;50.826;9.030;2022-07-05T04:59:12;1.88;;;1.40;;
47535;SDS011;33278;50.826;9.030;2022-07-05T05:01:43;3.03;;;1.83;;
47535;SDS011;33278;50.826;9.030;2022-07-05T05:04:13;2.28;;;1.60;;
47535;SDS011;33278;50.826;9.030;2022-07-05T05:06:43;1.83;;;1.38;;
47535;SDS011;33278;50.826;9.030;2022-07-05T05:09:14;1.65;;;1.55;;
47535;SDS011;33278;50.826;9.030;2022-07-05T05:11:44;2.67;;;1.40;;
47535;SDS011;33278;50.826;9.030;2022-07-05T05:14:14;2.35;;;1.85;;
47535;SDS011;33278;50.826;9.030;2022-07-05T05:16:45;1.95;;;1.58;;
47535;SDS011;33278;50.826;9.030;2022-07-05T05:19:15;2.10;;;1.90;;
47535;SDS011;33278;50.826;9.030;2022-07-05T05:21:45;1.63;;;1.52;;
47535;SDS011;33278;50.826;9.030;2022-07-05T05:24:16;2.95;;;2.13;;
47535;SDS011;33278;50.826;9.030;2022-07-05T05:26:46;8.27;;;1.98;;
47535;SDS011;33278;50.826;9.030;2022-07-05T05:29:17;3.25;;;2.30;;
47535;SDS011;33278;50.826;9.030;2022-07-05T05:31:49;3.90;;;2.00;;
47535;SDS011;33278;50.826;9.030;2022-07-05T05:34:19;2.15;;;1.92;;
47535;SDS011;33278;50.826;9.030;2022-07-05T05:36:49;3.25;;;2.03;;
47535;SDS011;33278;50.826;9.030;2022-07-05T05:39:19;4.18;;;2.20;;
47535;SDS011;33278;50.826;9.030;2022-07-05T05:41:50;4.32;;;2.03;;
47535;SDS011;33278;50.826;9.030;2022-07-05T05:44:20;4.45;;;2.22;;
47535;SDS011;33278;50.826;9.030;2022-07-05T05:46:50;1.85;;;1.67;;
47535;SDS011;33278;50.826;9.030;2022-07-05T05:49:21;2.03;;;1.80;;
47535;SDS011;33278;50.826;9.030;2022-07-05T05:51:51;2.72;;;2.00;;
47535;SDS011;33278;50.826;9.030;2022-07-05T05:54:21;2.75;;;2.00;;
47535;SDS011;33278;50.826;9.030;2022-07-05T05:56:52;4.00;;;2.05;;
47535;SDS011;33278;50.826;9.030;2022-07-05T05:59:22;3.20;;;1.98;;
47535;SDS011;33278;50.826;9.030;2022-07-05T06:01:52;2.10;;;2.00;;
47535;SDS011;33278;50.826;9.030;2022-07-05T06:04:22;2.15;;;1.65;;
47535;SDS011;33278;50.826;9.030;2022-07-05T06:06:53;2.55;;;1.90;;
47535;SDS011;33278;50.826;9.030;2022-07-05T06:09:23;5.10;;;2.10;;
47535;SDS011;33278;50.826;9.030;2022-07-05T06:11:53;2.35;;;1.83;;
47535;SDS011;33278;50.826;9.030;2022-07-05T06:14:23;2.10;;;1.90;;
47535;SDS011;33278;50.826;9.030;2022-07-05T06:16:54;2.28;;;1.88;;
47535;SDS011;33278;50.826;9.030;2022-07-05T06:19:24;2.30;;;1.85;;
47535;SDS011;33278;50.826;9.030;2022-07-05T06:21:54;3.25;;;1.70;;
47535;SDS011;33278;50.826;9.030;2022-07-05T06:24:24;2.17;;;1.88;;
47535;SDS011;33278;50.826;9.030;2022-07-05T06:26:55;2.92;;;2.00;;
47535;SDS011;33278;50.826;9.030;2022-07-05T06:29:25;2.55;;;1.85;;
47535;SDS011;33278;50.826;9.030;2022-07-05T06:31:55;3.75;;;2.10;;
47535;SDS011;33278;50.826;9.030;2022-07-05T06:34:26;2.38;;;1.73;;
47535;SDS011;33278;50.826;9.030;2022-07-05T06:36:56;4.60;;;2.00;;
47535;SDS011;33278;50.826;9.030;2022-07-05T06:39:26;2.05;;;1.70;;
47535;SDS011;33278;50.826;9.030;2022-07-05T06:41:57;3.00;;;1.80;;
47535;SDS011;33278;50.826;9.030;2022-07-05T06:44:27;3.42;;;2.00;;
47535;SDS011;33278;50.826;9.030;2022-07-05T06:46:57;2.63;;;1.88;;
47535;SDS011;33278;50.826;9.030;2022-07-05T06:49:27;3.20;;;1.85;;
47535;SDS011;33278;50.826;9.030;2022-07-05T06:51:58;2.35;;;1.80;;
47535;SDS011;33278;50.826;9.030;2022-07-05T06:54:28;2.53;;;1.98;;
47535;SDS011;33278;50.826;9.030;2022-07-05T06:56:58;3.03;;;1.98;;
47535;SDS011;33278;50.826;9.030;2022-07-05T06:59:29;2.00;;;1.73;;
47535;SDS011;33278;50.826;9.030;2022-07-05T07:01:59;4.95;;;2.20;;
47535;SDS011;33278;50.826;9.030;2022-07-05T07:04:29;7.88;;;2.22;;
47535;SDS011;33278;50.826;9.030;2022-07-05T07:06:59;2.60;;;2.00;;
47535;SDS011;33278;50.826;9.030;2022-07-05T07:09:30;4.85;;;2.20;;
47535;SDS011;33278;50.826;9.030;2022-07-05T07:12:00;2.55;;;1.90;;
47535;SDS011;33278;50.826;9.030;2022-07-05T07:14:30;3.80;;;2.03;;
47535;SDS011;33278;50.826;9.030;2022-07-05T07:17:01;5.50;;;1.98;;
47535;SDS011;33278;50.826;9.030;2022-07-05T07:19:31;3.67;;;1.83;;
47535;SDS011;33278;50.826;9.030;2022-07-05T07:22:01;6.88;;;2.47;;
47535;SDS011;33278;50.826;9.030;2022-07-05T07:24:32;4.57;;;2.45;;
47535;SDS011;33278;50.826;9.030;2022-07-05T07:27:02;3.92;;;2.30;;
47535;SDS011;33278;50.826;9.030;2022-07-05T07:29:37;4.65;;;2.33;;
47535;SDS011;33278;50.826;9.030;2022-07-05T07:32:08;7.38;;;2.03;;
47535;SDS011;33278;50.826;9.030;2022-07-05T07:34:39;9.65;;;2.13;;
47535;SDS011;33278;50.826;9.030;2022-07-05T07:37:09;8.10;;;2.72;;
47535;SDS011;33278;50.826;9.030;2022-07-05T07:39:43;1.80;;;1.70;;
47535;SDS011;33278;50.826;9.030;2022-07-05T07:42:13;8.38;;;2.30;;
47535;SDS011;33278;50.826;9.030;2022-07-05T07:44:43;5.00;;;2.17;;
47535;SDS011;33278;50.826;9.030;2022-07-05T07:47:14;4.03;;;2.03;;
47535;SDS011;33278;50.826;9.030;2022-07-05T07:49:44;11.27;;;2.75;;
47535;SDS011;33278;50.826;9.030;2022-07-05T07:52:14;8.45;;;2.33;;
47535;SDS011;33278;50.826;9.030;2022-07-05T07:54:45;4.85;;;2.17;;
47535;SDS011;33278;50.826;9.030;2022-07-05T07:57:15;9.23;;;2.10;;
47535;SDS011;33278;50.826;9.030;2022-07-05T07:59:46;6.05;;;2.30;;
47535;SDS011;33278;50.826;9.030;2022-07-05T08:02:16;3.13;;;2.22;;
47535;SDS011;33278;50.826;9.030;2022-07-05T08:04:51;4.20;;;1.90;;
47535;SDS011;33278;50.826;9.030;2022-07-05T08:07:21;7.85;;;2.53;;
47535;SDS011;33278;50.826;9.030;2022-07-05T08:09:51;8.23;;;2.35;;
47535;SDS011;33278;50.826;9.030;2022-07-05T08:12:22;5.20;;;2.45;;
47535;SDS011;33278;50.826;9.030;2022-07-05T08:14:53;8.75;;;2.83;;
47535;SDS011;33278;50.826;9.030;2022-07-05T08:17:23;5.22;;;2.13;;
47535;SDS011;33278;50.826;9.030;2022-07-05T08:19:53;6.22;;;2.08;;
47535;SDS011;33278;50.826;9.030;2022-07-05T08:22:42;5.72;;;2.28;;
47535;SDS011;33278;50.826;9.030;2022-07-05T08:25:13;4.70;;;2.22;;
47535;SDS011;33278;50.826;9.030;2022-07-05T08:27:44;2.78;;;1.70;;
47535;SDS011;33278;50.826;9.030;2022-07-05T08:30:14;4.47;;;2.78;;
47535;SDS011;33278;50.826;9.030;2022-07-05T08:32:46;7.72;;;2.95;;
47535;SDS011;33278;50.826;9.030;2022-07-05T08:35:16;5.68;;;2.92;;
47535;SDS011;33278;50.826;9.030;2022-07-05T08:37:47;5.63;;;2.13;;
47535;SDS011;33278;50.826;9.030;2022-07-05T08:40:17;3.38;;;2.00;;
47535;SDS011;33278;50.826;9.030;2022-07-05T08:42:52;2.92;;;1.77;;
47535;SDS011;33278;50.826;9.030;2022-07-05T08:45:26;3.13;;;2.13;;
47535;SDS011;33278;50.826;9.030;2022-07-05T08:47:57;2.35;;;1.70;;
47535;SDS011;33278;50.826;9.030;2022-07-05T08:50:30;2.20;;;2.00;;
47535;SDS011;33278;50.826;9.030;2022-07-05T08:53:02;3.45;;;2.28;;
47535;SDS011;33278;50.826;9.030;2022-07-05T08:55:33;2.60;;;2.05;;
47535;SDS011;33278;50.826;9.030;2022-07-05T08:58:04;3.00;;;2.05;;
47535;SDS011;33278;50.826;9.030;2022-07-05T09:00:35;3.30;;;1.92;;
47535;SDS011;33278;50.826;9.030;2022-07-05T09:05:43;2.73;;;2.37;;
47535;SDS011;33278;50.826;9.030;2022-07-05T09:08:15;2.28;;;1.95;;
47535;SDS011;33278;50.826;9.030;2022-07-05T09:10:46;1.98;;;1.80;;
47535;SDS011;33278;50.826;9.030;2022-07-05T09:13:16;2.22;;;1.88;;
47535;SDS011;33278;50.826;9.030;2022-07-05T09:15:47;2.00;;;1.65;;
47535;SDS011;33278;50.826;9.030;2022-07-05T09:24:00;2.67;;;1.85;;
47535;SDS011;33278;50.826;9.030;2022-07-05T09:29:10;1.85;;;1.75;;
47535;SDS011;33278;50.826;9.030;2022-07-05T09:31:49;3.15;;;1.77;;
47535;SDS011;33278;50.826;9.030;2022-07-05T09:34:20;2.78;;;1.55;;
47535;SDS011;33278;50.826;9.030;2022-07-05T09:44:45;2.72;;;1.80;;
47535;SDS011;33278;50.826;9.030;2022-07-05T09:47:20;2.03;;;1.88;;
47535;SDS011;33278;50.826;9.030;2022-07-05T09:49:56;2.05;;;1.70;;
47535;SDS011;33278;50.826;9.030;2022-07-05T09:52:34;1.77;;;1.67;;
47535;SDS011;33278;50.826;9.030;2022-07-05T09:55:09;1.98;;;1.70;;
47535;SDS011;33278;50.826;9.030;2022-07-05T09:57:42;5.97;;;1.73;;
47535;SDS011;33278;50.826;9.030;2022-07-05T10:00:16;1.98;;;1.67;;
47535;SDS011;33278;50.826;9.030;2022-07-05T10:05:22;1.65;;;1.55;;
47535;SDS011;33278;50.826;9.030;2022-07-05T10:07:54;1.95;;;1.70;;
47535;SDS011;33278;50.826;9.030;2022-07-05T10:10:27;4.28;;;1.95;;
47535;SDS011;33278;50.826;9.030;2022-07-05T10:13:00;2.95;;;1.80;;
47535;SDS011;33278;50.826;9.030;2022-07-05T10:15:36;1.40;;;1.30;;
47535;SDS011;33278;50.826;9.030;2022-07-05T10:18:07;1.60;;;1.50;;
47535;SDS011;33278;50.826;9.030;2022-07-05T10:20:50;3.20;;;1.90;;
47535;SDS011;33278;50.826;9.030;2022-07-05T10:23:23;3.28;;;1.83;;
47535;SDS011;33278;50.826;9.030;2022-07-05T10:25:53;1.75;;;1.50;;
47535;SDS011;33278;50.826;9.030;2022-07-05T10:30:57;1.70;;;1.60;;
47535;SDS011;33278;50.826;9.030;2022-07-05T10:33:29;2.15;;;1.70;;
47535;SDS011;33278;50.826;9.030;2022-07-05T10:36:00;1.80;;;1.58;;
47535;SDS011;33278;50.826;9.030;2022-07-05T10:38:34;2.10;;;1.70;;
47535;SDS011;33278;50.826;9.030;2022-07-05T10:41:09;1.58;;;1.48;;
47535;SDS011;33278;50.826;9.030;2022-07-05T10:43:42;1.63;;;1.52;;
47535;SDS011;33278;50.826;9.030;2022-07-05T10:46:16;1.60;;;1.50;;
47535;SDS011;33278;50.826;9.030;2022-07-05T10:49:20;1.80;;;1.50;;
47535;SDS011;33278;50.826;9.030;2022-07-05T10:51:50;1.88;;;1.77;;
47535;SDS011;33278;50.826;9.030;2022-07-05T10:54:20;1.70;;;1.60;;
47535;SDS011;33278;50.826;9.030;2022-07-05T11:00:06;1.80;;;1.60;;
47535;SDS011;33278;50.826;9.030;2022-07-05T11:02:40;1.65;;;1.55;;
47535;SDS011;33278;50.826;9.030;2022-07-05T11:05:12;2.35;;;1.50;;
47535;SDS011;33278;50.826;9.030;2022-07-05T11:08:01;1.60;;;1.50;;
47535;SDS011;33278;50.826;9.030;2022-07-05T11:10:35;1.70;;;1.60;;
47535;SDS011;33278;50.826;9.030;2022-07-05T11:13:35;1.65;;;1.55;;
47535;SDS011;33278;50.826;9.030;2022-07-05T11:21:37;2.03;;;1.80;;
47535;SDS011;33278;50.826;9.030;2022-07-05T11:24:24;1.70;;;1.60;;
47535;SDS011;33278;50.826;9.030;2022-07-05T11:26:59;1.70;;;1.60;;
47535;SDS011;33278;50.826;9.030;2022-07-05T11:32:19;2.40;;;1.90;;
47535;SDS011;33278;50.826;9.030;2022-07-05T11:34:53;1.77;;;1.60;;
47535;SDS011;33278;50.826;9.030;2022-07-05T11:37:26;2.60;;;1.50;;
47535;SDS011;33278;50.826;9.030;2022-07-05T11:42:47;1.52;;;1.40;;
47535;SDS011;33278;50.826;9.030;2022-07-05T11:45:18;2.60;;;1.42;;
47535;SDS011;33278;50.826;9.030;2022-07-05T11:47:49;1.95;;;1.60;;
47535;SDS011;33278;50.826;9.030;2022-07-05T11:50:27;2.00;;;1.77;;
47535;SDS011;33278;50.826;9.030;2022-07-05T11:52:59;1.40;;;1.30;;
47535;SDS011;33278;50.826;9.030;2022-07-05T11:55:31;1.35;;;1.25;;
47535;SDS011;33278;50.826;9.030;2022-07-05T11:58:01;2.75;;;1.75;;
47535;SDS011;33278;50.826;9.030;2022-07-05T12:00:35;3.65;;;1.52;;
47535;SDS011;33278;50.826;9.030;2022-07-05T12:03:13;1.63;;;1.52;;
47535;SDS011;33278;50.826;9.030;2022-07-05T12:05:44;1.83;;;1.73;;
47535;SDS011;33278;50.826;9.030;2022-07-05T12:08:24;3.65;;;1.45;;
47535;SDS011;33278;50.826;9.030;2022-07-05T12:10:55;1.50;;;1.40;;
47535;SDS011;33278;50.826;9.030;2022-07-05T12:13:47;1.73;;;1.38;;
47535;SDS011;33278;50.826;9.030;2022-07-05T12:16:19;1.48;;;1.30;;
47535;SDS011;33278;50.826;9.030;2022-07-05T12:18:53;1.90;;;1.80;;
47535;SDS011;33278;50.826;9.030;2022-07-05T12:21:25;1.63;;;1.50;;
47535;SDS011;33278;50.826;9.030;2022-07-05T12:23:55;1.90;;;1.50;;
47535;SDS011;33278;50.826;9.030;2022-07-05T12:26:25;1.50;;;1.40;;
47535;SDS011;33278;50.826;9.030;2022-07-05T12:28:56;1.52;;;1.20;;
47535;SDS011;33278;50.826;9.030;2022-07-05T12:31:26;1.88;;;1.77;;
47535;SDS011;33278;50.826;9.030;2022-07-05T12:34:07;1.85;;;1.75;;
47535;SDS011;33278;50.826;9.030;2022-07-05T12:36:46;1.52;;;1.42;;
47535;SDS011;33278;50.826;9.030;2022-07-05T12:39:17;1.67;;;1.58;;
47535;SDS011;33278;50.826;9.030;2022-07-05T12:41:47;2.15;;;1.75;;
47535;SDS011;33278;50.826;9.030;2022-07-05T12:44:18;1.90;;;1.65;;
47535;SDS011;33278;50.826;9.030;2022-07-05T12:46:49;2.10;;;1.90;;
47535;SDS011;33278;50.826;9.030;2022-07-05T12:49:20;2.00;;;1.80;;
47535;SDS011;33278;50.826;9.030;2022-07-05T12:51:51;1.67;;;1.58;;
47535;SDS011;33278;50.826;9.030;2022-07-05T12:54:22;1.65;;;1.55;;
47535;SDS011;33278;50.826;9.030;2022-07-05T12:57:14;2.05;;;1.85;;
47535;SDS011;33278;50.826;9.030;2022-07-05T13:00:06;2.53;;;1.73;;
47535;SDS011;33278;50.826;9.030;2022-07-05T13:02:41;2.08;;;1.88;;
47535;SDS011;33278;50.826;9.030;2022-07-05T13:05:19;1.80;;;1.70;;
47535;SDS011;33278;50.826;9.030;2022-07-05T13:07:51;1.85;;;1.75;;
47535;SDS011;33278;50.826;9.030;2022-07-05T13:10:23;1.67;;;1.50;;
47535;SDS011;33278;50.826;9.030;2022-07-05T13:12:56;2.00;;;1.50;;
47535;SDS011;33278;50.826;9.030;2022-07-05T13:15:26;1.70;;;1.60;;
47535;SDS011;33278;50.826;9.030;2022-07-05T13:17:56;2.05;;;1.88;;
47535;SDS011;33278;50.826;9.030;2022-07-05T13:20:26;2.20;;;2.00;;
47535;SDS011;33278;50.826;9.030;2022-07-05T13:22:57;2.13;;;1.90;;
47535;SDS011;33278;50.826;9.030;2022-07-05T13:25:27;1.90;;;1.80;;
47535;SDS011;33278;50.826;9.030;2022-07-05T13:27:57;3.08;;;2.03;;
47535;SDS011;33278;50.826;9.030;2022-07-05T13:30:27;2.00;;;1.90;;
47535;SDS011;33278;50.826;9.030;2022-07-05T13:32:58;2.00;;;1.80;;
47535;SDS011;33278;50.826;9.030;2022-07-05T13:35:28;1.80;;;1.70;;
47535;SDS011;33278;50.826;9.030;2022-07-05T13:37:58;1.90;;;1.80;;
47535;SDS011;33278;50.826;9.030;2022-07-05T13:40:28;2.45;;;1.70;;
47535;SDS011;33278;50.826;9.030;2022-07-05T13:42:59;2.22;;;1.67;;
47535;SDS011;33278;50.826;9.030;2022-07-05T13:45:29;2.65;;;1.88;;
47535;SDS011;33278;50.826;9.030;2022-07-05T13:47:59;1.83;;;1.55;;
47535;SDS011;33278;50.826;9.030;2022-07-05T13:50:29;2.05;;;1.85;;
47535;SDS011;33278;50.826;9.030;2022-07-05T13:53:03;1.63;;;1.52;;
47535;SDS011;33278;50.826;9.030;2022-07-05T13:55:33;1.83;;;1.63;;
47535;SDS011;33278;50.826;9.030;2022-07-05T13:58:04;3.33;;;1.80;;
47535;SDS011;33278;50.826;9.030;2022-07-05T14:00:34;1.92;;;1.75;;
47535;SDS011;33278;50.826;9.030;2022-07-05T14:03:04;1.48;;;1.33;;
47535;SDS011;33278;50.826;9.030;2022-07-05T14:05:34;2.67;;;1.70;;
47535;SDS011;33278;50.826;9.030;2022-07-05T14:08:05;1.75;;;1.65;;
47535;SDS011;33278;50.826;9.030;2022-07-05T14:10:35;2.33;;;1.65;;
47535;SDS011;33278;50.826;9.030;2022-07-05T14:13:06;2.65;;;1.77;;
47535;SDS011;33278;50.826;9.030;2022-07-05T14:15:36;1.60;;;1.50;;
47535;SDS011;33278;50.826;9.030;2022-07-05T14:18:07;1.70;;;1.60;;
47535;SDS011;33278;50.826;9.030;2022-07-05T14:20:37;3.40;;;1.55;;
47535;SDS011;33278;50.826;9.030;2022-07-05T14:23:08;1.88;;;1.77;;
47535;SDS011;33278;50.826;9.030;2022-07-05T14:25:39;2.08;;;1.88;;
47535;SDS011;33278;50.826;9.030;2022-07-05T14:28:11;1.90;;;1.80;;
47535;SDS011;33278;50.826;9.030;2022-07-05T14:30:42;1.88;;;1.77;;
47535;SDS011;33278;50.826;9.030;2022-07-05T14:33:14;1.83;;;1.58;;
47535;SDS011;33278;50.826;9.030;2022-07-05T14:35:45;1.50;;;1.48;;
47535;SDS011;33278;50.826;9.030;2022-07-05T14:38:15;1.48;;;1.38;;
47535;SDS011;33278;50.826;9.030;2022-07-05T14:40:45;2.10;;;1.90;;
47535;SDS011;33278;50.826;9.030;2022-07-05T14:43:15;2.45;;;1.80;;
47535;SDS011;33278;50.826;9.030;2022-07-05T14:45:46;1.80;;;1.70;;
47535;SDS011;33278;50.826;9.030;2022-07-05T14:48:17;1.88;;;1.75;;
47535;SDS011;33278;50.826;9.030;2022-07-05T14:50:48;2.50;;;1.67;;
47535;SDS011;33278;50.826;9.030;2022-07-05T14:53:19;1.88;;;1.77;;
47535;SDS011;33278;50.826;9.030;2022-07-05T14:55:50;2.42;;;1.90;;
47535;SDS011;33278;50.826;9.030;2022-07-05T14:58:20;1.67;;;1.58;;
47535;SDS011;33278;50.826;9.030;2022-07-05T15:00:50;1.90;;;1.70;;
47535;SDS011;33278;50.826;9.030;2022-07-05T15:03:20;1.38;;;1.27;;
47535;SDS011;33278;50.826;9.030;2022-07-05T15:05:52;1.50;;;1.40;;
47535;SDS011;33278;50.826;9.030;2022-07-05T15:08:23;1.92;;;1.70;;
47535;SDS011;33278;50.826;9.030;2022-07-05T15:10:55;1.52;;;1.42;;
47535;SDS011;33278;50.826;9.030;2022-07-05T15:13:25;1.90;;;1.45;;
47535;SDS011;33278;50.826;9.030;2022-07-05T15:15:57;1.67;;;1.58;;
47535;SDS011;33278;50.826;9.030;2022-07-05T15:18:27;1.42;;;1.33;;
47535;SDS011;33278;50.826;9.030;2022-07-05T15:20:57;2.65;;;1.58;;
47535;SDS011;33278;50.826;9.030;2022-07-05T15:23:28;1.73;;;1.63;;
47535;SDS011;33278;50.826;9.030;2022-07-05T15:25:58;1.67;;;1.40;;
47535;SDS011;33278;50.826;9.030;2022-07-05T15:28:29;1.73;;;1.58;;
47535;SDS011;33278;50.826;9.030;2022-07-05T15:30:59;1.35;;;1.25;;
47535;SDS011;33278;50.826;9.030;2022-07-05T15:33:29;1.45;;;1.38;;
47535;SDS011;33278;50.826;9.030;2022-07-05T15:36:00;2.08;;;1.73;;
47535;SDS011;33278;50.826;9.030;2022-07-05T15:38:30;1.85;;;1.50;;
47535;SDS011;33278;50.826;9.030;2022-07-05T15:41:02;1.42;;;1.40;;
47535;SDS011;33278;50.826;9.030;2022-07-05T15:43:32;1.65;;;1.55;;
47535;SDS011;33278;50.826;9.030;2022-07-05T15:46:03;1.85;;;1.75;;
47535;SDS011;33278;50.826;9.030;2022-07-05T15:48:33;1.50;;;1.40;;
47535;SDS011;33278;50.826;9.030;2022-07-05T15:51:04;1.70;;;1.60;;
47535;SDS011;33278;50.826;9.030;2022-07-05T15:53:34;1.58;;;1.48;;